sensor_id;sensor_type;location;lat;lon;timestamp;temperature;humidity
48535;DHT22;34323;52.022;5.686;2022-11-20T00:01:48;4.20;99.90
48535;DHT22;34323;52.022;5.686;2022-11-20T00:04:14;4.20;99.90
48535;DHT22;34323;52.022;5.686;2022-11-20T00:06:39;4.30;99.90
48535;DHT22;34323;52.022;5.686;2022-11-20T00:09:05;4.40;99.90
48535;DHT22;34323;52.022;5.686;2022-11-20T00:11:31;4.60;99.90
48535;DHT22;34323;52.022;5.686;2022-11-20T00:13:59;4.70;99.90
48535;DHT22;34323;52.022;5.686;2022-11-20T00:16:27;4.70;99.90
48535;DHT22;34323;52.022;5.686;2022-11-20T00:18:54;4.70;99.90
48535;DHT22;34323;52.022;5.686;2022-11-20T00:21:24;4.60;99.90
48535;DHT22;34323;52.022;5.686;2022-11-20T00:23:51;4.50;99.90
48535;DHT22;34323;52.022;5.686;2022-11-20T00:26:19;4.50;99.90
48535;DHT22;34323;52.022;5.686;2022-11-20T00:28:51;4.60;99.90
48535;DHT22;34323;52.022;5.686;2022-11-20T00:31:17;4.60;99.90
48535;DHT22;34323;52.022;5.686;2022-11-20T00:33:43;4.50;99.90
48535;DHT22;34323;52.022;5.686;2022-11-20T00:36:13;4.30;99.90
48535;DHT22;34323;52.022;5.686;2022-11-20T00:38:40;4.30;99.90
48535;DHT22;34323;52.022;5.686;2022-11-20T00:41:10;4.40;99.90
48535;DHT22;34323;52.022;5.686;2022-11-20T00:43:37;4.50;99.90
48535;DHT22;34323;52.022;5.686;2022-11-20T00:46:23;4.40;99.90
48535;DHT22;34323;52.022;5.686;2022-11-20T00:48:49;4.40;99.90
48535;DHT22;34323;52.022;5.686;2022-11-20T00:51:20;4.50;99.90
48535;DHT22;34323;52.022;5.686;2022-11-20T00:53:46;4.40;99.90
48535;DHT22;34323;52.022;5.686;2022-11-20T00:56:14;4.20;99.90
48535;DHT22;34323;52.022;5.686;2022-11-20T00:58:43;4.00;99.90
48535;DHT22;34323;52.022;5.686;2022-11-20T01:01:14;4.10;99.90
48535;DHT22;34323;52.022;5.686;2022-11-20T01:03:46;4.10;99.90
48535;DHT22;34323;52.022;5.686;2022-11-20T01:06:16;4.30;99.90
48535;DHT22;34323;52.022;5.686;2022-11-20T01:08:42;4.30;99.90
48535;DHT22;34323;52.022;5.686;2022-11-20T01:11:10;4.10;99.90
48535;DHT22;34323;52.022;5.686;2022-11-20T01:13:36;4.00;99.90
48535;DHT22;34323;52.022;5.686;2022-11-20T01:16:04;4.00;99.90
48535;DHT22;34323;52.022;5.686;2022-11-20T01:18:31;4.00;99.90
48535;DHT22;34323;52.022;5.686;2022-11-20T01:21:02;4.00;99.90
48535;DHT22;34323;52.022;5.686;2022-11-20T01:23:33;3.90;99.90
48535;DHT22;34323;52.022;5.686;2022-11-20T01:26:03;3.90;99.90
48535;DHT22;34323;52.022;5.686;2022-11-20T01:28:29;3.90;99.90
48535;DHT22;34323;52.022;5.686;2022-11-20T01:30:55;3.80;99.90
48535;DHT22;34323;52.022;5.686;2022-11-20T01:33:21;3.70;99.90
48535;DHT22;34323;52.022;5.686;2022-11-20T01:35:46;3.70;99.90
48535;DHT22;34323;52.022;5.686;2022-11-20T01:38:12;3.70;99.90
48535;DHT22;34323;52.022;5.686;2022-11-20T01:40:37;3.80;99.90
48535;DHT22;34323;52.022;5.686;2022-11-20T01:43:16;3.90;99.90
48535;DHT22;34323;52.022;5.686;2022-11-20T01:48:44;3.80;99.90
48535;DHT22;34323;52.022;5.686;2022-11-20T01:53:50;3.70;99.90
48535;DHT22;34323;52.022;5.686;2022-11-20T01:56:16;3.50;99.90
48535;DHT22;34323;52.022;5.686;2022-11-20T01:58:51;3.40;99.90
48535;DHT22;34323;52.022;5.686;2022-11-20T02:01:18;3.80;99.90
48535;DHT22;34323;52.022;5.686;2022-11-20T02:03:44;3.80;99.90
48535;DHT22;34323;52.022;5.686;2022-11-20T02:06:21;4.00;99.90
48535;DHT22;34323;52.022;5.686;2022-11-20T02:08:48;3.90;99.90
48535;DHT22;34323;52.022;5.686;2022-11-20T02:11:14;3.80;99.90
48535;DHT22;34323;52.022;5.686;2022-11-20T02:13:40;3.80;99.90
48535;DHT22;34323;52.022;5.686;2022-11-20T02:18:38;3.80;99.90
48535;DHT22;34323;52.022;5.686;2022-11-20T02:21:30;3.80;99.90
48535;DHT22;34323;52.022;5.686;2022-11-20T02:24:06;3.80;99.90
48535;DHT22;34323;52.022;5.686;2022-11-20T02:26:46;3.90;99.90
48535;DHT22;34323;52.022;5.686;2022-11-20T02:29:14;3.60;99.90
48535;DHT22;34323;52.022;5.686;2022-11-20T02:31:42;2.90;99.90
48535;DHT22;34323;52.022;5.686;2022-11-20T02:34:09;2.40;99.90
48535;DHT22;34323;52.022;5.686;2022-11-20T02:36:36;2.50;99.90
48535;DHT22;34323;52.022;5.686;2022-11-20T02:39:03;2.60;99.90
48535;DHT22;34323;52.022;5.686;2022-11-20T02:41:34;3.00;99.90
48535;DHT22;34323;52.022;5.686;2022-11-20T02:44:00;3.10;99.90
48535;DHT22;34323;52.022;5.686;2022-11-20T02:46:26;3.10;99.90
48535;DHT22;34323;52.022;5.686;2022-11-20T02:48:51;3.00;99.90
48535;DHT22;34323;52.022;5.686;2022-11-20T02:51:17;3.10;99.90
48535;DHT22;34323;52.022;5.686;2022-11-20T02:53:42;3.30;99.90
48535;DHT22;34323;52.022;5.686;2022-11-20T02:56:08;3.30;99.90
48535;DHT22;34323;52.022;5.686;2022-11-20T02:58:34;3.40;99.90
48535;DHT22;34323;52.022;5.686;2022-11-20T03:00:59;3.40;99.90
48535;DHT22;34323;52.022;5.686;2022-11-20T03:03:25;3.50;99.90
48535;DHT22;34323;52.022;5.686;2022-11-20T03:05:50;3.70;99.90
48535;DHT22;34323;52.022;5.686;2022-11-20T03:08:16;3.70;99.90
48535;DHT22;34323;52.022;5.686;2022-11-20T03:10:41;3.70;99.90
48535;DHT22;34323;52.022;5.686;2022-11-20T03:13:07;3.70;99.90
48535;DHT22;34323;52.022;5.686;2022-11-20T03:15:32;3.70;99.90
48535;DHT22;34323;52.022;5.686;2022-11-20T03:17:58;3.80;99.90
48535;DHT22;34323;52.022;5.686;2022-11-20T03:20:24;3.70;99.90
48535;DHT22;34323;52.022;5.686;2022-11-20T03:22:49;3.70;99.90
48535;DHT22;34323;52.022;5.686;2022-11-20T03:25:15;3.70;99.90
48535;DHT22;34323;52.022;5.686;2022-11-20T03:27:40;3.80;99.90
48535;DHT22;34323;52.022;5.686;2022-11-20T03:30:07;3.70;99.90
48535;DHT22;34323;52.022;5.686;2022-11-20T03:32:32;3.60;99.90
48535;DHT22;34323;52.022;5.686;2022-11-20T03:34:58;3.70;99.90
48535;DHT22;34323;52.022;5.686;2022-11-20T03:37:23;3.60;99.90
48535;DHT22;34323;52.022;5.686;2022-11-20T03:39:49;3.50;99.90
48535;DHT22;34323;52.022;5.686;2022-11-20T03:42:14;3.40;99.90
48535;DHT22;34323;52.022;5.686;2022-11-20T03:44:58;3.40;99.90
48535;DHT22;34323;52.022;5.686;2022-11-20T03:47:24;3.30;99.90
48535;DHT22;34323;52.022;5.686;2022-11-20T03:49:49;3.00;99.90
48535;DHT22;34323;52.022;5.686;2022-11-20T03:52:15;3.00;99.90
48535;DHT22;34323;52.022;5.686;2022-11-20T03:54:40;3.10;99.90
48535;DHT22;34323;52.022;5.686;2022-11-20T03:57:06;3.10;99.90
48535;DHT22;34323;52.022;5.686;2022-11-20T03:59:32;3.00;99.90
48535;DHT22;34323;52.022;5.686;2022-11-20T04:01:57;2.80;99.90
48535;DHT22;34323;52.022;5.686;2022-11-20T04:04:23;2.70;99.90
48535;DHT22;34323;52.022;5.686;2022-11-20T04:06:48;2.90;99.90
48535;DHT22;34323;52.022;5.686;2022-11-20T04:09:14;3.10;99.90
48535;DHT22;34323;52.022;5.686;2022-11-20T04:11:41;3.10;99.90
48535;DHT22;34323;52.022;5.686;2022-11-20T04:14:11;3.10;99.90
48535;DHT22;34323;52.022;5.686;2022-11-20T04:16:38;3.10;99.90
48535;DHT22;34323;52.022;5.686;2022-11-20T04:19:05;3.20;99.90
48535;DHT22;34323;52.022;5.686;2022-11-20T04:21:32;3.10;99.90
48535;DHT22;34323;52.022;5.686;2022-11-20T04:23:57;2.60;99.90
48535;DHT22;34323;52.022;5.686;2022-11-20T04:26:26;2.60;99.90
48535;DHT22;34323;52.022;5.686;2022-11-20T04:28:52;2.70;99.90
48535;DHT22;34323;52.022;5.686;2022-11-20T04:31:20;2.90;99.90
48535;DHT22;34323;52.022;5.686;2022-11-20T04:33:46;3.00;99.90
48535;DHT22;34323;52.022;5.686;2022-11-20T04:36:14;3.10;99.90
48535;DHT22;34323;52.022;5.686;2022-11-20T04:38:40;3.00;99.90
48535;DHT22;34323;52.022;5.686;2022-11-20T04:41:07;2.90;99.90
48535;DHT22;34323;52.022;5.686;2022-11-20T04:43:34;2.80;99.90
48535;DHT22;34323;52.022;5.686;2022-11-20T04:46:00;3.00;99.90
48535;DHT22;34323;52.022;5.686;2022-11-20T04:48:27;3.20;99.90
48535;DHT22;34323;52.022;5.686;2022-11-20T04:50:53;3.10;99.90
48535;DHT22;34323;52.022;5.686;2022-11-20T04:53:20;3.10;99.90
48535;DHT22;34323;52.022;5.686;2022-11-20T04:55:46;3.20;99.90
48535;DHT22;34323;52.022;5.686;2022-11-20T04:58:12;3.30;99.90
48535;DHT22;34323;52.022;5.686;2022-11-20T05:00:38;3.20;99.90
48535;DHT22;34323;52.022;5.686;2022-11-20T05:03:04;3.30;99.90
48535;DHT22;34323;52.022;5.686;2022-11-20T05:05:29;3.30;99.90
48535;DHT22;34323;52.022;5.686;2022-11-20T05:07:58;3.30;99.90
48535;DHT22;34323;52.022;5.686;2022-11-20T05:10:25;3.40;99.90
48535;DHT22;34323;52.022;5.686;2022-11-20T05:12:51;3.40;99.90
48535;DHT22;34323;52.022;5.686;2022-11-20T05:15:16;3.30;99.90
48535;DHT22;34323;52.022;5.686;2022-11-20T05:17:50;3.30;99.90
48535;DHT22;34323;52.022;5.686;2022-11-20T05:20:17;3.20;99.90
48535;DHT22;34323;52.022;5.686;2022-11-20T05:22:43;3.30;99.90
48535;DHT22;34323;52.022;5.686;2022-11-20T05:25:09;3.20;99.90
48535;DHT22;34323;52.022;5.686;2022-11-20T05:27:35;3.20;99.90
48535;DHT22;34323;52.022;5.686;2022-11-20T05:30:00;3.30;99.90
48535;DHT22;34323;52.022;5.686;2022-11-20T05:32:26;3.10;99.90
48535;DHT22;34323;52.022;5.686;2022-11-20T05:34:52;2.80;99.90
48535;DHT22;34323;52.022;5.686;2022-11-20T05:37:18;2.60;99.90
48535;DHT22;34323;52.022;5.686;2022-11-20T05:39:43;2.70;99.90
48535;DHT22;34323;52.022;5.686;2022-11-20T05:42:09;2.70;99.90
48535;DHT22;34323;52.022;5.686;2022-11-20T05:44:53;2.70;99.90
48535;DHT22;34323;52.022;5.686;2022-11-20T05:47:18;2.70;99.90
48535;DHT22;34323;52.022;5.686;2022-11-20T05:49:44;2.70;99.90
48535;DHT22;34323;52.022;5.686;2022-11-20T05:52:09;2.90;99.90
48535;DHT22;34323;52.022;5.686;2022-11-20T05:54:35;2.80;99.90
48535;DHT22;34323;52.022;5.686;2022-11-20T05:57:00;3.10;99.90
48535;DHT22;34323;52.022;5.686;2022-11-20T05:59:26;3.00;99.90
48535;DHT22;34323;52.022;5.686;2022-11-20T06:01:51;3.10;99.90
48535;DHT22;34323;52.022;5.686;2022-11-20T06:04:17;3.10;99.90
48535;DHT22;34323;52.022;5.686;2022-11-20T06:06:42;3.10;99.90
48535;DHT22;34323;52.022;5.686;2022-11-20T06:09:08;3.20;99.90
48535;DHT22;34323;52.022;5.686;2022-11-20T06:11:33;3.10;99.90
48535;DHT22;34323;52.022;5.686;2022-11-20T06:13:59;3.00;99.90
48535;DHT22;34323;52.022;5.686;2022-11-20T06:16:25;2.90;99.90
48535;DHT22;34323;52.022;5.686;2022-11-20T06:18:51;3.00;99.90
48535;DHT22;34323;52.022;5.686;2022-11-20T06:21:19;3.10;99.90
48535;DHT22;34323;52.022;5.686;2022-11-20T06:23:45;3.00;99.90
48535;DHT22;34323;52.022;5.686;2022-11-20T06:26:14;3.10;99.90
48535;DHT22;34323;52.022;5.686;2022-11-20T06:28:40;3.00;99.90
48535;DHT22;34323;52.022;5.686;2022-11-20T06:31:06;2.90;99.90
48535;DHT22;34323;52.022;5.686;2022-11-20T06:33:33;2.90;99.90
48535;DHT22;34323;52.022;5.686;2022-11-20T06:36:00;2.90;99.90
48535;DHT22;34323;52.022;5.686;2022-11-20T06:38:26;3.00;99.90
48535;DHT22;34323;52.022;5.686;2022-11-20T06:40:52;2.90;99.90
48535;DHT22;34323;52.022;5.686;2022-11-20T06:43:18;2.80;99.90
48535;DHT22;34323;52.022;5.686;2022-11-20T06:45:43;2.80;99.90
48535;DHT22;34323;52.022;5.686;2022-11-20T06:48:09;2.90;99.90
48535;DHT22;34323;52.022;5.686;2022-11-20T06:50:36;2.90;99.90
48535;DHT22;34323;52.022;5.686;2022-11-20T06:53:03;2.80;99.90
48535;DHT22;34323;52.022;5.686;2022-11-20T06:55:29;2.80;99.90
48535;DHT22;34323;52.022;5.686;2022-11-20T06:57:55;3.10;99.90
48535;DHT22;34323;52.022;5.686;2022-11-20T07:00:21;3.10;99.90
48535;DHT22;34323;52.022;5.686;2022-11-20T07:02:46;3.10;99.90
48535;DHT22;34323;52.022;5.686;2022-11-20T07:05:12;3.20;99.90
48535;DHT22;34323;52.022;5.686;2022-11-20T07:07:38;3.10;99.90
48535;DHT22;34323;52.022;5.686;2022-11-20T07:10:04;3.10;99.90
48535;DHT22;34323;52.022;5.686;2022-11-20T07:12:30;3.20;99.90
48535;DHT22;34323;52.022;5.686;2022-11-20T07:14:56;3.10;99.90
48535;DHT22;34323;52.022;5.686;2022-11-20T07:17:21;2.90;99.90
48535;DHT22;34323;52.022;5.686;2022-11-20T07:19:47;2.80;99.90
48535;DHT22;34323;52.022;5.686;2022-11-20T07:22:12;2.80;99.90
48535;DHT22;34323;52.022;5.686;2022-11-20T07:24:38;2.80;99.90
48535;DHT22;34323;52.022;5.686;2022-11-20T07:27:04;2.80;99.90
48535;DHT22;34323;52.022;5.686;2022-11-20T07:29:30;2.80;99.90
48535;DHT22;34323;52.022;5.686;2022-11-20T07:31:55;2.90;99.90
48535;DHT22;34323;52.022;5.686;2022-11-20T07:34:22;3.00;99.90
48535;DHT22;34323;52.022;5.686;2022-11-20T07:36:47;3.00;99.90
48535;DHT22;34323;52.022;5.686;2022-11-20T07:39:13;2.90;99.90
48535;DHT22;34323;52.022;5.686;2022-11-20T07:41:38;2.90;99.90
48535;DHT22;34323;52.022;5.686;2022-11-20T07:44:04;2.90;99.90
48535;DHT22;34323;52.022;5.686;2022-11-20T07:46:30;3.00;99.90
48535;DHT22;34323;52.022;5.686;2022-11-20T07:48:56;2.90;99.90
48535;DHT22;34323;52.022;5.686;2022-11-20T07:51:21;3.20;99.90
48535;DHT22;34323;52.022;5.686;2022-11-20T07:53:47;2.90;99.90
48535;DHT22;34323;52.022;5.686;2022-11-20T07:56:12;3.10;99.90
48535;DHT22;34323;52.022;5.686;2022-11-20T07:58:39;3.10;99.90
48535;DHT22;34323;52.022;5.686;2022-11-20T08:01:06;3.00;99.90
48535;DHT22;34323;52.022;5.686;2022-11-20T08:03:32;3.10;99.90
48535;DHT22;34323;52.022;5.686;2022-11-20T08:05:59;3.20;99.90
48535;DHT22;34323;52.022;5.686;2022-11-20T08:08:26;3.30;99.90
48535;DHT22;34323;52.022;5.686;2022-11-20T08:10:51;3.60;99.90
48535;DHT22;34323;52.022;5.686;2022-11-20T08:13:17;3.80;99.90
48535;DHT22;34323;52.022;5.686;2022-11-20T08:16:02;3.80;99.90
48535;DHT22;34323;52.022;5.686;2022-11-20T08:18:27;3.80;99.90
48535;DHT22;34323;52.022;5.686;2022-11-20T08:20:53;3.90;99.90
48535;DHT22;34323;52.022;5.686;2022-11-20T08:23:18;3.70;99.90
48535;DHT22;34323;52.022;5.686;2022-11-20T08:25:49;3.60;99.90
48535;DHT22;34323;52.022;5.686;2022-11-20T08:28:15;3.70;99.90
48535;DHT22;34323;52.022;5.686;2022-11-20T08:30:40;3.70;99.90
48535;DHT22;34323;52.022;5.686;2022-11-20T08:33:08;3.80;99.90
48535;DHT22;34323;52.022;5.686;2022-11-20T08:35:37;4.00;99.90
48535;DHT22;34323;52.022;5.686;2022-11-20T08:38:04;4.20;99.90
48535;DHT22;34323;52.022;5.686;2022-11-20T08:40:30;4.30;99.90
48535;DHT22;34323;52.022;5.686;2022-11-20T08:42:56;4.30;99.90
48535;DHT22;34323;52.022;5.686;2022-11-20T08:45:22;4.40;99.90
48535;DHT22;34323;52.022;5.686;2022-11-20T08:47:48;4.60;99.90
48535;DHT22;34323;52.022;5.686;2022-11-20T08:50:15;4.90;99.90
48535;DHT22;34323;52.022;5.686;2022-11-20T08:52:41;4.80;99.90
48535;DHT22;34323;52.022;5.686;2022-11-20T08:55:07;5.10;99.90
48535;DHT22;34323;52.022;5.686;2022-11-20T08:57:37;5.10;99.90
48535;DHT22;34323;52.022;5.686;2022-11-20T09:00:05;5.20;99.90
48535;DHT22;34323;52.022;5.686;2022-11-20T09:02:30;5.10;99.90
48535;DHT22;34323;52.022;5.686;2022-11-20T09:04:57;5.20;99.90
48535;DHT22;34323;52.022;5.686;2022-11-20T09:07:23;5.40;99.90
48535;DHT22;34323;52.022;5.686;2022-11-20T09:09:49;5.60;99.90
48535;DHT22;34323;52.022;5.686;2022-11-20T09:12:14;5.60;99.90
48535;DHT22;34323;52.022;5.686;2022-11-20T09:14:40;5.70;99.90
48535;DHT22;34323;52.022;5.686;2022-11-20T09:17:05;5.80;99.90
48535;DHT22;34323;52.022;5.686;2022-11-20T09:19:33;5.80;99.90
48535;DHT22;34323;52.022;5.686;2022-11-20T09:21:58;5.70;99.90
48535;DHT22;34323;52.022;5.686;2022-11-20T09:24:25;5.80;99.90
48535;DHT22;34323;52.022;5.686;2022-11-20T09:26:51;5.90;99.90
48535;DHT22;34323;52.022;5.686;2022-11-20T09:29:16;5.80;99.90
48535;DHT22;34323;52.022;5.686;2022-11-20T09:31:42;5.70;99.90
48535;DHT22;34323;52.022;5.686;2022-11-20T09:34:08;5.50;99.90
48535;DHT22;34323;52.022;5.686;2022-11-20T09:36:33;5.60;99.90
48535;DHT22;34323;52.022;5.686;2022-11-20T09:38:59;5.70;99.90
48535;DHT22;34323;52.022;5.686;2022-11-20T09:41:45;5.90;99.90
48535;DHT22;34323;52.022;5.686;2022-11-20T09:44:28;6.20;99.90
48535;DHT22;34323;52.022;5.686;2022-11-20T09:47:28;6.30;99.90
48535;DHT22;34323;52.022;5.686;2022-11-20T09:55:43;6.70;99.90
48535;DHT22;34323;52.022;5.686;2022-11-20T09:58:26;6.90;99.90
48535;DHT22;34323;52.022;5.686;2022-11-20T10:00:57;6.90;99.90
48535;DHT22;34323;52.022;5.686;2022-11-20T10:03:37;7.20;99.90
48535;DHT22;34323;52.022;5.686;2022-11-20T10:06:05;7.20;99.90
48535;DHT22;34323;52.022;5.686;2022-11-20T10:09:13;7.20;99.90
48535;DHT22;34323;52.022;5.686;2022-11-20T10:12:12;7.10;99.90
48535;DHT22;34323;52.022;5.686;2022-11-20T10:22:53;6.80;99.90
48535;DHT22;34323;52.022;5.686;2022-11-20T10:28:23;6.60;99.90
48535;DHT22;34323;52.022;5.686;2022-11-20T10:31:08;6.60;99.90
48535;DHT22;34323;52.022;5.686;2022-11-20T10:33:40;6.60;99.90
48535;DHT22;34323;52.022;5.686;2022-11-20T10:36:33;6.60;99.90
48535;DHT22;34323;52.022;5.686;2022-11-20T10:41:41;7.40;99.90
48535;DHT22;34323;52.022;5.686;2022-11-20T10:44:16;7.40;99.90
48535;DHT22;34323;52.022;5.686;2022-11-20T10:47:01;7.60;99.90
48535;DHT22;34323;52.022;5.686;2022-11-20T10:49:28;7.70;99.90
48535;DHT22;34323;52.022;5.686;2022-11-20T10:54:36;8.00;99.90
48535;DHT22;34323;52.022;5.686;2022-11-20T11:02:24;7.80;99.90
48535;DHT22;34323;52.022;5.686;2022-11-20T11:04:57;7.80;99.90
48535;DHT22;34323;52.022;5.686;2022-11-20T11:07:29;8.00;99.90
48535;DHT22;34323;52.022;5.686;2022-11-20T11:09:56;8.10;99.90
48535;DHT22;34323;52.022;5.686;2022-11-20T11:12:25;8.20;99.90
48535;DHT22;34323;52.022;5.686;2022-11-20T11:14:52;8.10;99.90
48535;DHT22;34323;52.022;5.686;2022-11-20T11:17:27;8.00;99.90
48535;DHT22;34323;52.022;5.686;2022-11-20T11:22:57;8.30;99.90
48535;DHT22;34323;52.022;5.686;2022-11-20T11:25:31;8.40;99.90
48535;DHT22;34323;52.022;5.686;2022-11-20T11:28:19;8.30;99.90
48535;DHT22;34323;52.022;5.686;2022-11-20T11:30:46;8.10;99.90
48535;DHT22;34323;52.022;5.686;2022-11-20T11:33:25;8.20;99.90
48535;DHT22;34323;52.022;5.686;2022-11-20T11:35:54;8.30;99.90
48535;DHT22;34323;52.022;5.686;2022-11-20T11:38:41;8.40;99.90
48535;DHT22;34323;52.022;5.686;2022-11-20T11:41:16;8.40;99.90
48535;DHT22;34323;52.022;5.686;2022-11-20T11:43:52;8.40;99.90
48535;DHT22;34323;52.022;5.686;2022-11-20T11:46:37;8.20;99.90
48535;DHT22;34323;52.022;5.686;2022-11-20T11:52:08;8.10;99.90
48535;DHT22;34323;52.022;5.686;2022-11-20T11:54:40;8.10;99.90
48535;DHT22;34323;52.022;5.686;2022-11-20T12:00:09;8.30;99.90
48535;DHT22;34323;52.022;5.686;2022-11-20T12:02:53;8.30;99.90
48535;DHT22;34323;52.022;5.686;2022-11-20T12:05:28;8.40;99.90
48535;DHT22;34323;52.022;5.686;2022-11-20T12:13:39;8.30;99.90
48535;DHT22;34323;52.022;5.686;2022-11-20T12:16:13;8.10;99.90
48535;DHT22;34323;52.022;5.686;2022-11-20T12:18:40;8.30;99.90
48535;DHT22;34323;52.022;5.686;2022-11-20T12:21:18;8.30;99.90
48535;DHT22;34323;52.022;5.686;2022-11-20T12:26:35;8.10;99.90
48535;DHT22;34323;52.022;5.686;2022-11-20T12:29:24;8.10;99.90
48535;DHT22;34323;52.022;5.686;2022-11-20T12:37:49;7.40;99.90
48535;DHT22;34323;52.022;5.686;2022-11-20T12:40:35;7.30;99.90
48535;DHT22;34323;52.022;5.686;2022-11-20T12:43:21;7.00;99.90
48535;DHT22;34323;52.022;5.686;2022-11-20T12:56:47;7.50;99.90
48535;DHT22;34323;52.022;5.686;2022-11-20T13:07:47;7.50;99.90
48535;DHT22;34323;52.022;5.686;2022-11-20T13:11:06;7.90;99.90
48535;DHT22;34323;52.022;5.686;2022-11-20T13:13:16;7.90;99.90
48535;DHT22;34323;52.022;5.686;2022-11-20T13:18:22;7.90;99.90
48535;DHT22;34323;52.022;5.686;2022-11-20T13:20:48;7.70;99.90
48535;DHT22;34323;52.022;5.686;2022-11-20T13:23:25;7.70;99.90
48535;DHT22;34323;52.022;5.686;2022-11-20T13:26:03;7.50;99.90
48535;DHT22;34323;52.022;5.686;2022-11-20T13:28:30;7.50;99.90
48535;DHT22;34323;52.022;5.686;2022-11-20T13:30:57;7.40;99.90
48535;DHT22;34323;52.022;5.686;2022-11-20T13:33:29;7.30;99.90
48535;DHT22;34323;52.022;5.686;2022-11-20T13:36:00;7.30;99.90
48535;DHT22;34323;52.022;5.686;2022-11-20T13:38:26;7.50;99.90
48535;DHT22;34323;52.022;5.686;2022-11-20T13:40:58;7.80;99.90
48535;DHT22;34323;52.022;5.686;2022-11-20T13:43:37;7.90;99.90
48535;DHT22;34323;52.022;5.686;2022-11-20T13:46:09;8.00;99.90
48535;DHT22;34323;52.022;5.686;2022-11-20T13:48:40;8.20;99.90
48535;DHT22;34323;52.022;5.686;2022-11-20T13:51:22;8.20;99.90
48535;DHT22;34323;52.022;5.686;2022-11-20T13:54:19;8.30;99.90
48535;DHT22;34323;52.022;5.686;2022-11-20T13:57:47;8.00;99.90
48535;DHT22;34323;52.022;5.686;2022-11-20T14:00:00;8.10;99.90
48535;DHT22;34323;52.022;5.686;2022-11-20T14:02:29;8.10;99.90
48535;DHT22;34323;52.022;5.686;2022-11-20T14:04:58;8.10;99.90
48535;DHT22;34323;52.022;5.686;2022-11-20T14:07:35;8.20;99.90
48535;DHT22;34323;52.022;5.686;2022-11-20T14:10:03;7.90;99.90
48535;DHT22;34323;52.022;5.686;2022-11-20T14:12:31;8.10;99.90
48535;DHT22;34323;52.022;5.686;2022-11-20T14:14:57;7.90;99.90
48535;DHT22;34323;52.022;5.686;2022-11-20T14:17:34;7.70;99.90
48535;DHT22;34323;52.022;5.686;2022-11-20T14:20:12;7.80;99.90
48535;DHT22;34323;52.022;5.686;2022-11-20T14:22:39;7.80;99.90
48535;DHT22;34323;52.022;5.686;2022-11-20T14:27:41;7.80;99.90
48535;DHT22;34323;52.022;5.686;2022-11-20T14:30:14;8.00;99.90
48535;DHT22;34323;52.022;5.686;2022-11-20T14:32:42;8.10;99.90
48535;DHT22;34323;52.022;5.686;2022-11-20T14:35:10;8.30;99.90
48535;DHT22;34323;52.022;5.686;2022-11-20T14:37:39;8.20;99.90
48535;DHT22;34323;52.022;5.686;2022-11-20T14:40:26;8.10;99.90
48535;DHT22;34323;52.022;5.686;2022-11-20T14:42:53;8.20;99.90
48535;DHT22;34323;52.022;5.686;2022-11-20T14:45:19;8.10;99.90
48535;DHT22;34323;52.022;5.686;2022-11-20T14:47:45;8.00;99.90
48535;DHT22;34323;52.022;5.686;2022-11-20T14:50:19;8.00;99.90
48535;DHT22;34323;52.022;5.686;2022-11-20T14:52:59;8.00;99.90
48535;DHT22;34323;52.022;5.686;2022-11-20T14:55:35;8.10;99.90
48535;DHT22;34323;52.022;5.686;2022-11-20T14:58:21;8.20;99.90
48535;DHT22;34323;52.022;5.686;2022-11-20T15:00:58;7.90;99.90
48535;DHT22;34323;52.022;5.686;2022-11-20T15:03:37;8.10;99.90
48535;DHT22;34323;52.022;5.686;2022-11-20T15:06:07;8.00;99.90
48535;DHT22;34323;52.022;5.686;2022-11-20T15:08:35;8.00;99.90
48535;DHT22;34323;52.022;5.686;2022-11-20T15:11:01;8.10;99.90
48535;DHT22;34323;52.022;5.686;2022-11-20T15:13:33;8.10;99.90
48535;DHT22;34323;52.022;5.686;2022-11-20T15:16:00;8.10;99.90
48535;DHT22;34323;52.022;5.686;2022-11-20T15:20:55;8.00;99.90
48535;DHT22;34323;52.022;5.686;2022-11-20T15:23:21;8.00;99.90
48535;DHT22;34323;52.022;5.686;2022-11-20T15:25:48;7.90;99.90
48535;DHT22;34323;52.022;5.686;2022-11-20T15:28:31;7.80;99.90
48535;DHT22;34323;52.022;5.686;2022-11-20T15:30:58;7.60;99.90
48535;DHT22;34323;52.022;5.686;2022-11-20T15:33:24;7.30;99.90
48535;DHT22;34323;52.022;5.686;2022-11-20T15:35:50;7.60;99.90
48535;DHT22;34323;52.022;5.686;2022-11-20T15:38:15;7.90;99.90
48535;DHT22;34323;52.022;5.686;2022-11-20T15:40:41;8.10;99.90
48535;DHT22;34323;52.022;5.686;2022-11-20T15:43:07;8.30;99.90
48535;DHT22;34323;52.022;5.686;2022-11-20T15:45:44;8.30;99.90
48535;DHT22;34323;52.022;5.686;2022-11-20T15:48:19;8.20;99.90
48535;DHT22;34323;52.022;5.686;2022-11-20T15:51:06;8.20;99.90
48535;DHT22;34323;52.022;5.686;2022-11-20T15:53:41;8.30;99.90
48535;DHT22;34323;52.022;5.686;2022-11-20T15:56:13;8.30;99.90
48535;DHT22;34323;52.022;5.686;2022-11-20T15:58:40;8.30;99.90
48535;DHT22;34323;52.022;5.686;2022-11-20T16:01:10;8.40;99.90
48535;DHT22;34323;52.022;5.686;2022-11-20T16:03:36;8.50;99.90
48535;DHT22;34323;52.022;5.686;2022-11-20T16:06:01;8.50;99.90
48535;DHT22;34323;52.022;5.686;2022-11-20T16:08:27;8.50;99.90
48535;DHT22;34323;52.022;5.686;2022-11-20T16:10:52;8.50;99.90
48535;DHT22;34323;52.022;5.686;2022-11-20T16:13:18;8.40;99.90
48535;DHT22;34323;52.022;5.686;2022-11-20T16:16:07;8.40;99.90
48535;DHT22;34323;52.022;5.686;2022-11-20T16:18:37;8.40;99.90
48535;DHT22;34323;52.022;5.686;2022-11-20T16:21:02;8.30;99.90
48535;DHT22;34323;52.022;5.686;2022-11-20T16:23:28;8.20;99.90
48535;DHT22;34323;52.022;5.686;2022-11-20T16:25:54;8.20;99.90
48535;DHT22;34323;52.022;5.686;2022-11-20T16:28:20;8.10;99.90
48535;DHT22;34323;52.022;5.686;2022-11-20T16:30:46;8.30;99.90
48535;DHT22;34323;52.022;5.686;2022-11-20T16:33:14;8.40;99.90
48535;DHT22;34323;52.022;5.686;2022-11-20T16:35:40;8.60;99.90
48535;DHT22;34323;52.022;5.686;2022-11-20T16:38:06;8.60;99.90
48535;DHT22;34323;52.022;5.686;2022-11-20T16:40:31;8.60;99.90
48535;DHT22;34323;52.022;5.686;2022-11-20T16:42:57;8.70;99.90
48535;DHT22;34323;52.022;5.686;2022-11-20T16:45:23;8.70;99.90
48535;DHT22;34323;52.022;5.686;2022-11-20T16:47:48;8.60;99.90
48535;DHT22;34323;52.022;5.686;2022-11-20T16:50:14;8.70;99.90
48535;DHT22;34323;52.022;5.686;2022-11-20T16:52:40;8.80;99.90
48535;DHT22;34323;52.022;5.686;2022-11-20T16:55:05;8.90;99.90
48535;DHT22;34323;52.022;5.686;2022-11-20T16:57:31;8.90;99.90
48535;DHT22;34323;52.022;5.686;2022-11-20T17:00:00;9.00;99.90
48535;DHT22;34323;52.022;5.686;2022-11-20T17:02:27;8.80;99.90
48535;DHT22;34323;52.022;5.686;2022-11-20T17:04:52;8.70;99.90
48535;DHT22;34323;52.022;5.686;2022-11-20T17:07:18;8.70;99.90
48535;DHT22;34323;52.022;5.686;2022-11-20T17:09:44;8.70;99.90
48535;DHT22;34323;52.022;5.686;2022-11-20T17:12:09;8.90;99.90
48535;DHT22;34323;52.022;5.686;2022-11-20T17:14:35;9.00;99.90
48535;DHT22;34323;52.022;5.686;2022-11-20T17:17:01;8.90;99.90
48535;DHT22;34323;52.022;5.686;2022-11-20T17:19:26;8.90;99.90
48535;DHT22;34323;52.022;5.686;2022-11-20T17:21:52;9.10;99.90
48535;DHT22;34323;52.022;5.686;2022-11-20T17:24:17;9.10;99.90